Time;durP1;ratioP1;P1;durP2;ratioP2;P2;SDS_P1;SDS_P2;PMS_P1;PMS_P2;Temp;Humidity;BMP_temperature;BMP_pressure;BME280_temperature;BME280_humidity;BME280_pressure;Samples;Min_cycle;Max_cycle;Signal;HPM_P1;HPM_P2
2022/07/12 00:01:06;;;;;;;0.80;0.40;;;;;;;22.94;35.36;99232.88;6156129;23;20178;-86
2022/07/12 00:03:32;;;;;;;0.60;0.40;;;;;;;23.11;35.07;99228.50;6156073;23;20155;-86
2022/07/12 00:05:57;;;;;;;1.67;0.70;;;;;;;23.11;35.10;99231.16;6156391;23;20155;-86
2022/07/12 00:08:23;;;;;;;1.00;0.50;;;;;;;23.04;35.41;99230.09;6154786;23;20186;-87
2022/07/12 00:10:50;;;;;;;1.30;0.70;;;;;;;22.95;35.54;99231.03;6156017;23;20147;-86
2022/07/12 00:13:15;;;;;;;2.50;0.70;;;;;;;22.68;35.66;99232.00;6154784;23;20197;-85
2022/07/12 00:15:41;;;;;;;1.10;0.50;;;;;;;22.45;36.42;99231.63;6156002;23;20148;-86
2022/07/12 00:18:07;;;;;;;3.47;1.10;;;;;;;22.33;36.58;99232.81;6156292;23;20147;-86
2022/07/12 00:20:33;;;;;;;7.03;1.00;;;;;;;22.22;37.08;99227.69;6155120;23;20201;-86
2022/07/12 00:22:58;;;;;;;5.33;1.50;;;;;;;21.93;37.09;99233.22;6155120;23;20158;-87
2022/07/12 00:25:25;;;;;;;1.00;0.60;;;;;;;21.74;37.64;99235.16;6154729;23;20579;-85
2022/07/12 00:27:51;;;;;;;1.57;0.60;;;;;;;21.87;37.49;99235.69;6155906;23;20151;-86
2022/07/12 00:30:17;;;;;;;0.80;0.40;;;;;;;21.88;37.52;99234.69;6154660;23;20510;-85
2022/07/12 00:32:42;;;;;;;0.90;0.50;;;;;;;21.90;37.42;99230.88;6155874;23;20222;-86
2022/07/12 00:35:08;;;;;;;3.23;0.60;;;;;;;21.89;37.17;99233.69;6155916;23;20175;-86
2022/07/12 00:37:33;;;;;;;0.70;0.53;;;;;;;21.68;37.59;99235.75;6156577;23;20177;-86
2022/07/12 00:39:59;;;;;;;2.07;0.80;;;;;;;21.63;37.82;99232.69;6156169;23;20155;-86
2022/07/12 00:42:26;;;;;;;1.93;0.97;;;;;;;21.51;38.54;99233.88;6155014;23;20590;-86
2022/07/12 00:44:52;;;;;;;0.73;0.50;;;;;;;21.57;38.31;99235.94;6154790;23;20498;-87
2022/07/12 00:47:33;;;;;;;1.53;0.53;;;;;;;21.63;38.30;99235.34;6156138;23;20151;-87
2022/07/12 00:49:59;;;;;;;1.50;0.73;;;;;;;21.41;38.61;99240.06;6154876;23;20269;-87
2022/07/12 00:52:25;;;;;;;0.80;0.50;;;;;;;21.38;38.71;99242.22;6156444;23;20158;-86
2022/07/12 00:54:50;;;;;;;1.87;0.53;;;;;;;21.23;38.95;99240.97;6154991;23;20634;-87
2022/07/12 00:57:16;;;;;;;1.10;0.60;;;;;;;21.36;38.71;99239.66;6155911;23;20256;-86
2022/07/12 00:59:42;;;;;;;0.60;0.40;;;;;;;21.29;38.51;99241.25;6156378;23;20232;-87
2022/07/12 01:02:08;;;;;;;1.13;0.70;;;;;;;21.19;38.75;99236.94;6156910;23;20158;-88
2022/07/12 01:04:35;;;;;;;1.00;0.53;;;;;;;21.16;38.97;99234.56;6158137;23;20170;-87
2022/07/12 01:07:00;;;;;;;3.20;0.67;;;;;;;21.16;38.88;99240.72;6158419;23;20147;-87
2022/07/12 01:09:27;;;;;;;2.60;0.80;;;;;;;21.28;38.41;99233.38;6156453;23;20178;-86
2022/07/12 01:11:53;;;;;;;4.37;0.60;;;;;;;21.20;38.76;99242.09;6156514;23;20193;-86
2022/07/12 01:14:19;;;;;;;2.00;0.80;;;;;;;21.15;39.01;99239.03;6156770;23;20151;-87
2022/07/12 01:16:45;;;;;;;1.70;0.67;;;;;;;21.03;38.74;99242.84;6156404;23;20237;-86
2022/07/12 01:19:17;;;;;;;1.73;0.80;;;;;;;21.10;39.08;99245.78;6157605;23;20151;-87
2022/07/12 01:21:46;;;;;;;2.50;1.03;;;;;;;21.12;39.30;99246.50;6158337;23;20132;-87
2022/07/12 01:24:13;;;;;;;2.10;1.00;;;;;;;21.27;39.13;99240.56;6157883;23;20230;-86
2022/07/12 01:26:38;;;;;;;3.27;0.90;;;;;;;21.27;39.08;99245.91;6156330;23;20166;-86
2022/07/12 01:29:06;;;;;;;1.23;0.77;;;;;;;21.16;39.38;99240.72;6156221;23;20191;-88
2022/07/12 01:31:35;;;;;;;2.20;0.77;;;;;;;21.03;39.55;99239.31;6157501;23;20178;-86
2022/07/12 01:34:02;;;;;;;1.13;0.77;;;;;;;20.82;40.33;99244.84;6157502;23;20151;-86
2022/07/12 01:36:28;;;;;;;1.57;0.67;;;;;;;20.73;40.54;99253.66;6157777;23;20210;-86
2022/07/12 01:38:53;;;;;;;1.60;0.87;;;;;;;20.64;40.57;99244.72;6157787;23;20159;-87
2022/07/12 01:41:19;;;;;;;2.10;0.63;;;;;;;20.59;41.00;99238.13;6157229;23;20191;-86
2022/07/12 01:43:44;;;;;;;1.70;1.00;;;;;;;20.37;41.26;99254.38;6157423;23;20151;-86
2022/07/12 01:46:10;;;;;;;1.20;0.70;;;;;;;20.29;41.44;99248.91;6157335;23;20559;-87
2022/07/12 01:48:36;;;;;;;3.70;1.17;;;;;;;20.37;41.12;99252.56;6157545;23;20147;-86
2022/07/12 01:51:01;;;;;;;3.20;0.80;;;;;;;20.41;41.32;99245.16;6157293;23;20148;-87
2022/07/12 01:53:27;;;;;;;1.87;1.00;;;;;;;20.34;41.14;99246.66;6157616;23;20227;-88
2022/07/12 01:55:52;;;;;;;0.87;0.67;;;;;;;20.36;41.33;99250.03;6157640;23;20182;-87
2022/07/12 01:58:19;;;;;;;1.43;0.90;;;;;;;20.27;41.48;99250.88;6157533;23;20222;-87
2022/07/12 02:00:50;;;;;;;1.63;0.93;;;;;;;20.16;41.61;99244.66;6157512;23;20143;-87
2022/07/12 02:03:17;;;;;;;1.33;0.93;;;;;;;20.01;42.06;99254.03;6157889;23;20205;-86
2022/07/12 02:05:43;;;;;;;1.97;0.90;;;;;;;19.99;41.67;99249.81;6157831;23;20238;-86
2022/07/12 02:08:08;;;;;;;1.53;0.83;;;;;;;20.04;41.90;99248.44;6157140;23;20571;-86
2022/07/12 02:10:34;;;;;;;2.93;1.03;;;;;;;20.06;41.48;99243.81;6157372;23;20622;-86
2022/07/12 02:13:03;;;;;;;0.90;0.60;;;;;;;20.11;41.46;99241.56;6156980;23;20162;-85
2022/07/12 02:15:28;;;;;;;1.57;0.80;;;;;;;20.12;41.96;99242.44;6156239;23;20582;-86
2022/07/12 02:17:54;;;;;;;1.97;1.10;;;;;;;20.05;41.56;99242.13;6155845;23;20153;-86
2022/07/12 02:20:19;;;;;;;1.10;0.70;;;;;;;19.89;42.00;99243.66;6156204;23;20217;-86
2022/07/12 02:22:45;;;;;;;4.33;1.10;;;;;;;19.83;42.03;99238.88;6157340;23;20198;-86
2022/07/12 02:25:10;;;;;;;1.67;1.10;;;;;;;19.87;42.39;99245.56;6157021;23;20158;-86
2022/07/12 02:27:37;;;;;;;1.63;1.10;;;;;;;19.84;42.25;99249.34;6157009;23;20562;-86
2022/07/12 02:30:03;;;;;;;1.53;1.00;;;;;;;19.84;42.56;99249.34;6157226;23;20240;-86
2022/07/12 02:32:29;;;;;;;3.17;1.00;;;;;;;19.78;42.65;99254.38;6155721;23;20583;-86
2022/07/12 02:34:54;;;;;;;1.77;1.00;;;;;;;19.74;42.19;99259.13;6156923;23;20186;-85
2022/07/12 02:37:20;;;;;;;1.43;0.87;;;;;;;19.87;42.42;99262.38;6157243;23;20575;-86
2022/07/12 02:39:45;;;;;;;2.93;0.87;;;;;;;19.87;42.06;99257.06;6157216;23;20231;-88
2022/07/12 02:42:11;;;;;;;1.63;0.93;;;;;;;19.95;42.39;99262.56;6155470;23;20202;-86
2022/07/12 02:44:36;;;;;;;1.80;1.00;;;;;;;19.86;42.05;99266.03;6157194;23;20147;-86
2022/07/12 02:47:02;;;;;;;2.43;1.00;;;;;;;19.88;42.06;99264.09;6156826;23;20220;-87
2022/07/12 02:49:27;;;;;;;1.13;0.80;;;;;;;19.87;42.68;99259.72;6156666;23;20221;-87
2022/07/12 02:51:53;;;;;;;2.20;0.90;;;;;;;19.89;42.37;99265.75;6157081;23;20178;-86
2022/07/12 02:54:18;;;;;;;1.20;0.70;;;;;;;19.89;42.12;99263.09;6156719;23;20589;-86
2022/07/12 02:56:43;;;;;;;2.57;1.03;;;;;;;19.92;42.18;99267.28;6156500;23;20618;-87
2022/07/12 02:59:09;;;;;;;1.73;0.93;;;;;;;19.80;42.75;99263.91;6156674;23;20147;-86
2022/07/12 03:01:34;;;;;;;2.97;0.90;;;;;;;19.93;42.62;99261.84;6155473;23;20637;-88
2022/07/12 03:04:00;;;;;;;1.60;0.80;;;;;;;19.73;42.81;99265.44;6157310;23;20170;-86
2022/07/12 03:06:25;;;;;;;2.37;1.17;;;;;;;19.74;42.96;99264.44;6156914;23;20601;-87
2022/07/12 03:08:51;;;;;;;1.90;1.30;;;;;;;19.75;43.12;99268.81;6156473;23;20196;-87
2022/07/12 03:11:16;;;;;;;1.90;1.07;;;;;;;19.81;42.48;99270.91;6156533;23;20214;-87
2022/07/12 03:13:42;;;;;;;3.50;1.20;;;;;;;19.83;42.44;99273.44;6156533;23;20212;-87
2022/07/12 03:16:07;;;;;;;4.00;1.03;;;;;;;19.74;43.24;99269.78;6156489;23;20151;-87
2022/07/12 03:18:33;;;;;;;2.80;1.07;;;;;;;19.65;43.04;99264.44;6156531;23;20147;-87
2022/07/12 03:20:58;;;;;;;2.60;1.07;;;;;;;19.67;43.14;99258.00;6156490;23;20151;-86
2022/07/12 03:23:24;;;;;;;1.80;0.90;;;;;;;19.77;42.81;99269.50;6156426;23;20177;-86
2022/07/12 03:25:49;;;;;;;4.27;1.03;;;;;;;19.85;43.07;99272.34;6156063;23;20578;-88
2022/07/12 03:28:15;;;;;;;4.60;1.10;;;;;;;19.87;42.80;99269.53;6156370;23;20155;-87
2022/07/12 03:30:40;;;;;;;6.60;1.00;;;;;;;19.87;42.78;99272.19;6156272;23;20179;-87
2022/07/12 03:33:06;;;;;;;2.70;1.07;;;;;;;19.89;43.17;99268.41;6156668;23;20165;-86
2022/07/12 03:35:31;;;;;;;2.20;0.90;;;;;;;19.75;43.52;99275.94;6155119;23;20154;-86
2022/07/12 03:37:57;;;;;;;2.20;1.10;;;;;;;19.89;43.35;99279.06;6156290;23;20158;-87
2022/07/12 03:40:22;;;;;;;6.83;1.00;;;;;;;19.85;43.47;99280.31;6155097;23;20151;-87
2022/07/12 03:42:48;;;;;;;4.27;1.07;;;;;;;19.87;43.65;99285.47;6154892;23;20205;-85
2022/07/12 03:45:14;;;;;;;1.73;0.90;;;;;;;19.88;44.05;99277.38;6155000;23;20159;-86
2022/07/12 03:47:40;;;;;;;2.40;1.23;;;;;;;19.94;43.63;99290.13;6155049;23;20552;-86
2022/07/12 03:50:08;;;;;;;1.73;0.83;;;;;;;19.89;43.76;99292.34;6156401;23;20189;-87
2022/07/12 03:52:34;;;;;;;2.53;1.20;;;;;;;19.99;43.54;99292.41;6154945;23;20485;-87
2022/07/12 03:55:02;;;;;;;1.50;1.00;;;;;;;19.85;43.32;99296.28;6156170;23;20213;-88
2022/07/12 03:57:27;;;;;;;2.90;1.00;;;;;;;19.77;43.63;99295.25;6154935;23;20230;-87
2022/07/12 03:59:53;;;;;;;1.73;1.00;;;;;;;19.76;44.16;99298.91;6156441;23;20151;-87
2022/07/12 04:02:19;;;;;;;2.20;0.80;;;;;;;19.92;43.33;99294.75;6154873;23;20155;-87
2022/07/12 04:04:45;;;;;;;2.80;1.27;;;;;;;19.87;43.70;99301.44;6154928;23;20186;-86
2022/07/12 04:07:10;;;;;;;3.13;1.20;;;;;;;19.88;43.83;99298.66;6156401;23;20147;-87
2022/07/12 04:09:36;;;;;;;2.47;1.30;;;;;;;19.92;43.82;99300.06;6155902;23;20246;-86
2022/07/12 04:12:02;;;;;;;4.07;0.90;;;;;;;19.90;43.54;99303.84;6156054;23;20157;-87
2022/07/12 04:14:31;;;;;;;3.77;0.93;;;;;;;19.86;43.93;99305.94;6156698;23;20563;-89
2022/07/12 04:16:57;;;;;;;1.63;0.90;;;;;;;19.83;43.77;99308.03;6155999;23;20174;-87
2022/07/12 04:19:27;;;;;;;1.40;0.80;;;;;;;19.83;43.59;99310.69;6156338;23;20192;-88
2022/07/12 04:21:56;;;;;;;1.60;1.00;;;;;;;19.78;43.85;99307.59;6156381;23;20178;-86
2022/07/12 04:24:22;;;;;;;2.37;1.20;;;;;;;19.73;44.12;99304.50;6156297;23;20590;-88
2022/07/12 04:26:48;;;;;;;1.77;0.90;;;;;;;19.77;43.93;99317.38;6154732;23;20151;-87
2022/07/12 04:29:15;;;;;;;4.20;0.90;;;;;;;19.96;43.71;99316.63;6155820;23;20206;-86
2022/07/12 04:31:40;;;;;;;1.57;0.97;;;;;;;19.82;44.32;99320.47;6155888;23;20147;-87
2022/07/12 04:34:05;;;;;;;3.87;1.13;;;;;;;19.86;44.47;99324.56;6154705;23;20201;-87
2022/07/12 04:36:32;;;;;;;3.03;1.20;;;;;;;19.97;44.86;99323.59;6154656;23;20155;-86
2022/07/12 04:38:58;;;;;;;1.60;0.90;;;;;;;19.92;44.42;99318.69;6155868;23;20158;-86
2022/07/12 04:41:23;;;;;;;1.30;0.87;;;;;;;20.18;44.15;99322.56;6155632;23;20269;-87
2022/07/12 04:43:49;;;;;;;1.53;0.80;;;;;;;20.28;43.98;99321.78;6156194;23;20214;-86
2022/07/12 04:46:15;;;;;;;2.90;1.27;;;;;;;20.28;43.81;99321.78;6155849;23;20147;-87
2022/07/12 04:48:40;;;;;;;1.93;0.97;;;;;;;20.23;43.94;99322.13;6156057;23;20154;-87
2022/07/12 04:51:06;;;;;;;1.40;0.80;;;;;;;20.17;44.97;99320.03;6156146;23;20587;-87
2022/07/12 04:53:31;;;;;;;2.20;0.80;;;;;;;20.36;44.58;99322.75;6155794;23;20183;-86
2022/07/12 04:55:57;;;;;;;4.20;0.90;;;;;;;20.21;44.10;99330.25;6156117;23;20147;-86
2022/07/12 04:58:23;;;;;;;2.47;1.10;;;;;;;20.45;44.30;99318.44;6156462;23;20154;-86
2022/07/12 05:00:49;;;;;;;3.23;1.70;;;;;;;20.50;44.26;99322.38;6155725;23;20593;-86
2022/07/12 05:03:15;;;;;;;1.87;0.90;;;;;;;20.39;43.68;99324.31;6155758;23;20148;-87
2022/07/12 05:05:49;;;;;;;1.70;1.20;;;;;;;20.49;43.82;99317.19;6154548;23;20168;-85
2022/07/12 05:08:49;;;;;;;3.17;1.47;;;;;;;20.68;44.01;99311.84;6154441;23;20236;-87
2022/07/12 05:11:15;;;;;;;2.43;1.13;;;;;;;20.73;43.51;99317.59;6155653;23;20177;-86
2022/07/12 05:13:40;;;;;;;1.77;1.17;;;;;;;20.67;44.30;99319.03;6156723;23;20182;-86
2022/07/12 05:16:07;;;;;;;16.30;1.47;;;;;;;20.74;44.56;99316.63;6155688;23;20221;-87
2022/07/12 05:18:34;;;;;;;1.23;0.70;;;;;;;20.78;44.18;99318.88;6155684;23;20163;-88
2022/07/12 05:20:59;;;;;;;1.80;1.07;;;;;;;20.85;43.58;99329.81;6155659;23;20171;-87
2022/07/12 05:23:25;;;;;;;1.47;0.83;;;;;;;20.80;42.96;99324.91;6155736;23;20622;-88
2022/07/12 05:25:50;;;;;;;1.20;0.70;;;;;;;20.95;42.44;99313.81;6155623;23;20571;-88
2022/07/12 05:28:16;;;;;;;2.03;1.10;;;;;;;21.17;42.82;99314.38;6154852;23;20234;-87
2022/07/12 05:30:43;;;;;;;0.80;0.70;;;;;;;21.21;41.80;99323.78;6155505;23;20185;-87
2022/07/12 05:33:09;;;;;;;2.77;1.03;;;;;;;21.26;41.29;99320.69;6155594;23;20523;-88
2022/07/12 05:35:34;;;;;;;2.13;0.67;;;;;;;21.46;41.27;99324.16;6155949;23;20147;-87
2022/07/12 05:38:01;;;;;;;1.77;0.90;;;;;;;21.82;39.98;99323.31;6155910;23;20158;-86
2022/07/12 05:40:26;;;;;;;2.50;0.97;;;;;;;21.89;40.72;99324.44;6156235;23;20155;-89
2022/07/12 05:42:52;;;;;;;2.00;0.90;;;;;;;22.08;40.34;99323.50;6155394;23;20330;-87
2022/07/12 05:45:17;;;;;;;1.50;0.83;;;;;;;22.01;40.67;99318.75;6155859;23;20147;-87
2022/07/12 05:47:43;;;;;;;2.17;1.03;;;;;;;22.24;40.66;99329.03;6154829;23;20165;-87
2022/07/12 05:50:08;;;;;;;1.83;0.90;;;;;;;22.30;40.70;99323.09;6157564;23;20189;-88
2022/07/12 05:55:18;;;;;;;3.57;1.03;;;;;;;22.28;40.86;99330.41;6157980;23;20147;-87
2022/07/12 05:57:43;;;;;;;3.17;0.67;;;;;;;22.39;41.00;99328.38;6157289;23;20151;-88
2022/07/12 06:00:10;;;;;;;1.50;1.00;;;;;;;22.59;39.44;99319.22;6157235;23;20148;-87
2022/07/12 06:02:35;;;;;;;1.27;0.70;;;;;;;22.70;38.76;99326.22;6155961;23;20159;-87
2022/07/12 06:05:01;;;;;;;1.10;0.80;;;;;;;22.77;38.14;99321.13;6157897;23;20151;-88
2022/07/12 06:07:26;;;;;;;1.90;0.57;;;;;;;22.86;38.24;99325.53;6157150;23;20151;-87
2022/07/12 06:09:52;;;;;;;0.60;0.50;;;;;;;23.16;38.09;99322.44;6157092;23;20175;-87
2022/07/12 06:12:17;;;;;;;1.60;0.70;;;;;;;23.41;38.06;99326.16;6157175;23;20147;-87
2022/07/12 06:14:43;;;;;;;2.37;0.90;;;;;;;23.32;38.33;99319.06;6157107;23;20147;-86
2022/07/12 06:17:11;;;;;;;1.23;0.70;;;;;;;23.46;38.70;99330.03;6157472;23;20151;-89
2022/07/12 06:19:36;;;;;;;0.70;0.40;;;;;;;23.77;37.18;99315.16;6155850;23;20151;-87
2022/07/12 06:22:02;;;;;;;2.00;0.70;;;;;;;23.85;37.18;99315.22;6155837;23;20294;-88
2022/07/12 06:24:28;;;;;;;1.80;0.80;;;;;;;24.14;36.81;99319.38;6157312;23;20151;-87
2022/07/12 06:26:53;;;;;;;1.77;0.70;;;;;;;24.44;36.37;99310.78;6155821;23;20594;-88
2022/07/12 06:29:19;;;;;;;1.03;0.50;;;;;;;24.62;35.32;99314.16;6157155;23;20185;-88
2022/07/12 06:31:44;;;;;;;2.97;0.50;;;;;;;24.64;34.68;99309.47;6156138;23;20579;-89
2022/07/12 06:34:09;;;;;;;1.20;0.70;;;;;;;24.64;35.74;99314.81;6156956;23;20216;-88
2022/07/12 06:36:43;;;;;;;22.90;2.60;;;;;;;24.39;33.69;99313.09;6157358;23;20579;-91
2022/07/12 06:39:09;;;;;;;1.03;0.50;;;;;;;24.28;34.92;99300.00;6157705;23;20270;-87
2022/07/12 06:41:34;;;;;;;3.67;0.70;;;;;;;24.43;34.56;99309.91;6156768;23;20255;-90
2022/07/12 06:44:22;;;;;;;2.90;0.40;;;;;;;24.68;33.77;99302.78;6155892;23;20155;-91
2022/07/12 06:46:51;;;;;;;0.93;0.40;;;;;;;25.02;32.86;99306.19;6157381;23;20139;-89
2022/07/12 06:49:16;;;;;;;2.57;0.60;;;;;;;25.08;32.98;99310.00;6157499;23;20174;-88
2022/07/12 06:51:41;;;;;;;0.90;0.40;;;;;;;25.19;32.76;99301.63;6157162;23;20217;-91
2022/07/12 06:54:07;;;;;;;3.20;0.50;;;;;;;25.44;31.94;99302.44;6155656;23;20483;-89
2022/07/12 06:56:32;;;;;;;1.23;0.67;;;;;;;25.79;32.88;99307.38;6155476;23;20666;-89
2022/07/12 06:58:58;;;;;;;3.80;1.27;;;;;;;25.95;31.96;99299.28;6156570;23;20222;-88
2022/07/12 07:01:23;;;;;;;1.10;0.43;;;;;;;26.33;31.65;99303.00;6157184;23;20151;-87
2022/07/12 07:03:49;;;;;;;0.60;0.30;;;;;;;26.41;30.82;99297.59;6157041;23;20158;-90
2022/07/12 07:06:14;;;;;;;2.30;0.40;;;;;;;26.19;30.87;99309.97;6156671;23;20156;-87
2022/07/12 07:08:40;;;;;;;0.93;0.30;;;;;;;26.26;31.55;99303.88;6156517;23;20213;-87
2022/07/12 07:11:05;;;;;;;2.73;0.40;;;;;;;26.19;31.60;99301.91;6155397;23;20163;-89
2022/07/12 07:13:31;;;;;;;0.68;0.35;;;;;;;26.59;31.23;99308.06;6157177;23;20151;-89
2022/07/12 07:15:56;;;;;;;0.60;0.40;;;;;;;26.49;30.83;99307.44;6156560;23;20571;-89
2022/07/12 07:18:22;;;;;;;0.93;0.40;;;;;;;26.71;30.03;99306.59;6156529;23;20162;-87
2022/07/12 07:20:47;;;;;;;1.63;0.63;;;;;;;26.71;30.44;99302.06;6156484;23;20536;-87
2022/07/12 07:23:16;;;;;;;2.47;0.68;;;;;;;26.87;29.39;99305.69;6156466;23;20570;-89
2022/07/12 07:25:43;;;;;;;0.85;0.30;;;;;;;26.97;30.26;99299.03;6157172;23;20151;-89
2022/07/12 07:28:11;;;;;;;6.40;0.52;;;;;;;27.02;29.80;99314.66;6156869;23;20147;-90
2022/07/12 07:30:52;;;;;;;2.50;0.73;;;;;;;27.29;29.97;99306.00;6156228;23;20669;-87
2022/07/12 07:33:25;;;;;;;2.03;0.98;;;;;;;27.19;28.72;99300.03;6156828;23;20136;-90
2022/07/12 07:35:54;;;;;;;0.82;0.30;;;;;;;27.10;28.91;99304.63;6156232;23;20159;-90
2022/07/12 07:38:20;;;;;;;1.10;0.30;;;;;;;27.31;29.63;99302.09;6156336;23;20213;-88
2022/07/12 07:40:54;;;;;;;4.97;0.40;;;;;;;27.30;28.77;99303.13;6156653;23;20151;-89
2022/07/12 07:43:20;;;;;;;0.43;0.30;;;;;;;27.64;28.64;99291.88;6155152;23;20161;-88
2022/07/12 07:45:45;;;;;;;0.50;0.30;;;;;;;27.85;28.75;99301.91;6156526;23;20547;-87
2022/07/12 07:48:11;;;;;;;2.65;0.52;;;;;;;28.14;28.93;99296.50;6156212;23;20189;-88
2022/07/12 07:50:37;;;;;;;1.30;0.50;;;;;;;28.45;28.61;99301.63;6154943;23;20183;-89
2022/07/12 07:53:04;;;;;;;1.67;0.55;;;;;;;28.75;28.22;99299.72;6156194;23;20147;-90
2022/07/12 07:55:29;;;;;;;1.38;0.80;;;;;;;28.69;27.45;99295.91;6156143;23;20473;-89
2022/07/12 07:57:55;;;;;;;1.38;0.50;;;;;;;28.55;27.44;99304.84;6156177;23;20161;-87
2022/07/12 08:00:20;;;;;;;0.20;0.15;;;;;;;28.47;26.72;99305.81;6154960;23;20161;-88
2022/07/12 08:02:46;;;;;;;0.60;0.25;;;;;;;28.24;27.69;99307.00;6156165;23;20225;-88
2022/07/12 08:05:11;;;;;;;2.30;0.40;;;;;;;27.82;27.63;99291.50;6154929;23;20162;-89
2022/07/12 08:07:37;;;;;;;0.43;0.32;;;;;;;28.10;28.24;99297.06;6154927;23;20159;-87
2022/07/12 08:10:02;;;;;;;0.40;0.20;;;;;;;28.01;27.95;99290.91;6154712;23;20183;-87
2022/07/12 08:12:28;;;;;;;1.17;0.38;;;;;;;28.15;27.37;99292.78;6155994;23;20151;-88
2022/07/12 08:14:53;;;;;;;1.02;0.30;;;;;;;28.36;27.60;99282.03;6154852;23;20180;-88
2022/07/12 08:17:19;;;;;;;0.75;0.30;;;;;;;28.45;27.88;99285.47;6156008;23;20147;-89
2022/07/12 08:19:44;;;;;;;1.70;0.60;;;;;;;28.29;27.73;99283.84;6155997;23;20147;-87
2022/07/12 08:22:10;;;;;;;0.95;0.40;;;;;;;28.40;27.27;99282.50;6155939;23;20230;-89
2022/07/12 08:24:35;;;;;;;0.73;0.30;;;;;;;28.38;28.10;99276.47;6156016;23;20485;-88
2022/07/12 08:27:01;;;;;;;0.43;0.20;;;;;;;28.56;27.07;99277.69;6156325;23;20173;-89
2022/07/12 08:29:26;;;;;;;0.85;0.38;;;;;;;28.60;26.56;99284.38;6156520;23;20187;-89
2022/07/12 08:31:51;;;;;;;1.85;0.45;;;;;;;28.65;26.28;99283.81;6155120;23;20151;-88
2022/07/12 08:34:17;;;;;;;1.70;0.82;;;;;;;28.84;26.39;99283.19;6156252;23;20151;-90
2022/07/12 08:36:42;;;;;;;0.57;0.32;;;;;;;29.04;26.48;99272.56;6155841;23;20198;-89
2022/07/12 08:39:08;;;;;;;1.00;0.28;;;;;;;28.70;24.52;99269.75;6155934;23;20143;-89
2022/07/12 08:41:33;;;;;;;2.65;0.70;;;;;;;28.80;26.20;99278.38;6155972;23;20643;-88
2022/07/12 08:44:02;;;;;;;1.08;0.50;;;;;;;29.22;26.99;99264.84;6155897;23;20576;-93
2022/07/12 08:46:27;;;;;;;0.40;0.20;;;;;;;29.46;26.66;99277.06;6154673;23;20305;-90
2022/07/12 08:48:55;;;;;;;0.50;0.20;;;;;;;29.31;25.76;99268.22;6155700;23;20598;-89
2022/07/12 08:51:22;;;;;;;0.88;0.40;;;;;;;29.65;26.04;99266.38;6155819;23;20151;-88
2022/07/12 08:54:05;;;;;;;0.55;0.30;;;;;;;29.80;25.98;99259.00;6156095;23;20230;-88
2022/07/12 08:56:40;;;;;;;1.30;0.47;;;;;;;29.98;24.63;99260.34;6154614;23;20155;-88
2022/07/12 08:59:20;;;;;;;1.15;0.32;;;;;;;29.71;24.52;99254.78;6156503;23;20127;-88
2022/07/12 09:01:50;;;;;;;1.02;0.30;;;;;;;29.82;26.02;99256.94;6155823;23;20230;-88
2022/07/12 09:04:27;;;;;;;0.40;0.30;;;;;;;29.67;25.56;99258.06;6156075;23;20155;-89
2022/07/12 09:06:52;;;;;;;1.95;0.55;;;;;;;29.69;25.58;99256.84;6155625;23;20159;-90
2022/07/12 09:09:32;;;;;;;1.48;0.52;;;;;;;29.87;24.94;99247.41;6154408;23;20623;-87
2022/07/12 09:11:59;;;;;;;0.85;0.20;;;;;;;29.67;26.02;99239.16;6155666;23;20147;-89
2022/07/12 09:14:26;;;;;;;0.28;0.20;;;;;;;29.70;24.84;99252.28;6156077;23;20151;-89
2022/07/12 09:17:09;;;;;;;1.85;0.45;;;;;;;29.91;24.76;99248.66;6154495;23;20170;-89
2022/07/12 09:19:35;;;;;;;1.35;0.28;;;;;;;29.69;23.45;99247.91;6156127;23;20132;-89
2022/07/12 09:22:01;;;;;;;0.80;0.30;;;;;;;29.68;23.34;99247.09;6155522;23;20212;-89
2022/07/12 09:24:28;;;;;;;0.60;0.20;;;;;;;29.98;24.10;99234.13;6156130;23;20155;-88
2022/07/12 09:26:59;;;;;;;0.43;0.20;;;;;;;30.20;23.47;99232.13;6156395;23;20159;-88
2022/07/12 09:29:25;;;;;;;2.72;0.68;;;;;;;30.08;25.16;99237.31;6158151;23;20163;-88
2022/07/12 09:37:21;;;;;;;0.38;0.30;;;;;;;30.06;23.69;99225.03;6158183;23;20622;-88
2022/07/12 09:39:53;;;;;;;1.70;0.30;;;;;;;30.22;24.24;99235.47;6156675;23;20151;-88
2022/07/12 09:42:19;;;;;;;0.52;0.20;;;;;;;30.32;24.23;99230.53;6157155;23;20167;-89
2022/07/12 09:44:45;;;;;;;2.60;0.45;;;;;;;30.23;23.89;99226.31;6157714;23;20591;-89
2022/07/12 09:47:15;;;;;;;1.05;0.30;;;;;;;30.14;23.77;99228.38;6156561;23;20511;-89
2022/07/12 09:49:42;;;;;;;1.58;0.40;;;;;;;30.15;24.55;99223.81;6157543;23;20246;-87
2022/07/12 09:52:19;;;;;;;3.70;0.43;;;;;;;30.23;23.67;99231.72;6157651;23;20157;-89
2022/07/12 09:54:46;;;;;;;1.65;0.20;;;;;;;30.55;23.90;99222.91;6157686;23;20460;-88
2022/07/12 09:57:36;;;;;;;1.25;0.30;;;;;;;30.85;24.68;99223.31;6157253;23;20226;-89
2022/07/12 10:00:06;;;;;;;0.60;0.40;;;;;;;31.14;23.55;99216.66;6155368;23;20237;-90
2022/07/12 10:02:33;;;;;;;0.60;0.20;;;;;;;30.73;23.86;99206.88;6157965;23;20207;-88
2022/07/12 10:05:04;;;;;;;0.68;0.22;;;;;;;30.30;23.46;99227.16;6157351;23;20158;-89
2022/07/12 10:07:34;;;;;;;2.40;0.40;;;;;;;30.50;23.57;99214.56;6155962;23;20155;-88
2022/07/12 10:09:59;;;;;;;1.30;0.32;;;;;;;30.55;23.65;99214.78;6157807;23;20191;-89
2022/07/12 10:12:26;;;;;;;0.70;0.40;;;;;;;30.62;25.17;99210.19;6156828;23;20241;-90
2022/07/12 10:15:00;;;;;;;0.80;0.38;;;;;;;30.87;25.14;99213.13;6155939;23;20241;-90
2022/07/12 10:17:27;;;;;;;0.68;0.22;;;;;;;30.92;22.84;99210.66;6157503;23;20166;-89
2022/07/12 10:20:31;;;;;;;1.77;0.38;;;;;;;30.97;22.79;99202.75;6157283;23;20143;-91
2022/07/12 10:23:37;;;;;;;0.30;0.20;;;;;;;31.11;23.46;99198.97;6067665;23;20212;-89
2022/07/12 10:26:17;;;;;;;0.20;0.20;;;;;;;31.11;22.89;99198.13;6157836;23;20135;-91
2022/07/12 10:29:16;;;;;;;0.43;0.20;;;;;;;31.25;22.98;99199.78;6157056;23;20151;-91
2022/07/12 10:31:48;;;;;;;2.30;0.30;;;;;;;31.38;22.97;99199.75;6155914;23;20163;-90
2022/07/12 10:34:22;;;;;;;2.05;0.63;;;;;;;31.79;22.97;99192.13;6155973;23;20186;-91
2022/07/12 10:36:56;;;;;;;0.65;0.22;;;;;;;31.95;22.79;99186.22;6157691;23;20201;-92
2022/07/12 10:39:26;;;;;;;0.80;0.47;;;;;;;31.80;22.51;99193.81;6155893;23;20158;-91
2022/07/12 10:42:06;;;;;;;0.75;0.30;;;;;;;31.85;21.99;99190.44;6156937;23;20167;-89
2022/07/12 10:44:44;;;;;;;1.05;0.30;;;;;;;32.13;22.53;99194.50;6156959;23;20147;-88
2022/07/12 10:47:12;;;;;;;0.68;0.30;;;;;;;31.95;22.51;99179.97;6157694;23;20142;-89
2022/07/12 10:49:46;;;;;;;2.05;0.43;;;;;;;32.33;22.67;99178.13;6157061;23;20171;-90
2022/07/12 10:52:11;;;;;;;1.80;0.30;;;;;;;32.48;23.40;99180.50;6157223;23;20214;-91
2022/07/12 10:54:42;;;;;;;0.30;0.22;;;;;;;32.38;22.34;99175.56;6155580;23;20257;-91
2022/07/12 10:57:08;;;;;;;5.30;0.20;;;;;;;32.60;23.33;99167.94;6157120;23;20162;-91
2022/07/12 10:59:36;;;;;;;1.73;0.50;;;;;;;32.57;22.58;99171.09;6156698;23;20222;-89
2022/07/12 11:02:03;;;;;;;0.88;0.15;;;;;;;32.57;22.77;99174.63;6156733;23;20158;-88
2022/07/12 11:04:29;;;;;;;2.35;0.40;;;;;;;32.73;21.74;99165.13;6157077;23;20578;-90
2022/07/12 11:06:56;;;;;;;1.65;0.17;;;;;;;32.63;22.85;99153.91;6155565;23;20213;-90
2022/07/12 11:09:23;;;;;;;0.93;0.30;;;;;;;32.84;21.33;99153.50;6156942;23;20178;-89
2022/07/12 11:11:50;;;;;;;0.70;0.10;;;;;;;32.89;22.15;99159.09;6156622;23;20178;-91
2022/07/12 11:14:33;;;;;;;1.15;0.28;;;;;;;32.30;21.28;99151.41;6156694;23;20218;-93
2022/07/12 11:16:59;;;;;;;0.43;0.28;;;;;;;32.45;21.54;99148.38;6155547;23;20178;-89
2022/07/12 11:19:28;;;;;;;1.23;0.43;;;;;;;32.49;22.26;99155.03;6156456;23;20563;-90
2022/07/12 11:21:58;;;;;;;1.58;0.38;;;;;;;32.78;20.77;99160.66;6156468;23;20151;-90
2022/07/12 11:24:26;;;;;;;0.93;0.25;;;;;;;32.89;21.80;99166.44;6156530;23;20151;-88
2022/07/12 11:26:52;;;;;;;0.95;0.15;;;;;;;32.96;20.02;99162.59;6157140;23;20158;-90
2022/07/12 11:29:18;;;;;;;1.80;0.30;;;;;;;32.80;20.66;99157.72;6155174;23;20179;-88
2022/07/12 11:31:44;;;;;;;0.45;0.20;;;;;;;32.84;20.71;99150.78;6155227;23;20182;-88
2022/07/12 11:34:23;;;;;;;0.68;0.20;;;;;;;33.02;20.45;99150.00;6155154;23;20151;-90
2022/07/12 11:37:01;;;;;;;0.98;0.30;;;;;;;33.30;20.68;99144.94;6156370;23;20158;-89
2022/07/12 11:39:37;;;;;;;0.20;0.10;;;;;;;33.35;21.05;99145.06;6156151;23;20213;-90
2022/07/12 11:42:04;;;;;;;0.13;0.10;;;;;;;33.47;21.24;99148.69;6155156;23;20521;-91
2022/07/12 11:44:43;;;;;;;1.02;0.20;;;;;;;33.21;20.96;99147.09;6156652;23;20217;-90